createdAt,value
2019-03-16T20:21:05.239Z,1.30
2019-03-16T20:23:33.203Z,1.47
2019-03-16T20:26:01.167Z,1.72
2019-03-16T20:28:29.147Z,1.30
2019-03-16T20:30:57.122Z,1.60
2019-03-16T20:33:25.111Z,1.40
2019-03-16T20:35:53.079Z,1.80
2019-03-16T20:38:21.052Z,1.30
2019-03-16T20:40:50.562Z,1.42
2019-03-16T20:43:18.679Z,1.42
2019-03-16T20:45:46.688Z,1.20
2019-03-16T20:48:14.656Z,1.25
2019-03-16T20:50:42.625Z,1.02
2019-03-16T20:53:10.603Z,1.30
2019-03-16T20:55:38.564Z,1.47
2019-03-16T20:58:06.531Z,1.42
2019-03-16T21:00:34.505Z,1.70
2019-03-16T21:03:15.245Z,1.40
2019-03-16T21:05:32.215Z,1.60
2019-03-16T21:08:00.189Z,1.35
2019-03-16T21:10:28.156Z,1.30
2019-03-16T21:12:56.116Z,1.40
2019-03-16T21:15:24.087Z,1.67
2019-03-16T21:17:52.066Z,1.12
2019-03-16T21:20:20.043Z,1.20
2019-03-16T21:22:47.996Z,1.10
2019-03-16T21:25:16.247Z,1.40
2019-03-16T21:27:44.233Z,1.12
2019-03-16T21:30:15.823Z,1.60
2019-03-16T21:32:43.791Z,1.80
2019-03-16T21:35:11.764Z,2.05
2019-03-16T21:37:39.776Z,2.05
2019-03-16T21:40:09.134Z,2.60
2019-03-16T21:42:37.138Z,2.45
2019-03-16T21:45:06.371Z,2.35
2019-03-16T21:47:34.392Z,2.65
2019-03-16T21:50:02.541Z,2.40
2019-03-16T21:52:30.621Z,2.50
2019-03-16T21:54:58.660Z,2.60
2019-03-16T21:57:26.751Z,2.65
2019-03-16T21:59:54.877Z,2.17
2019-03-16T22:02:22.853Z,2.30
2019-03-16T22:04:50.823Z,2.35
2019-03-16T22:07:18.837Z,2.60
2019-03-16T22:09:46.828Z,2.40
2019-03-16T22:12:14.792Z,2.92
2019-03-16T22:14:42.801Z,2.50
2019-03-16T22:17:10.776Z,2.17
2019-03-16T22:19:38.731Z,2.00
2019-03-16T22:22:06.703Z,2.12
2019-03-16T22:24:34.671Z,2.20
2019-03-16T22:27:02.651Z,2.20
2019-03-16T22:29:30.623Z,2.20
2019-03-16T22:31:58.628Z,2.20
2019-03-16T22:34:26.601Z,2.02
2019-03-16T22:36:54.589Z,2.00
2019-03-16T22:39:22.580Z,1.90
2019-03-16T22:41:50.548Z,2.00
2019-03-16T22:44:18.520Z,2.20
2019-03-16T22:46:46.481Z,2.50
2019-03-16T22:49:14.456Z,1.82
2019-03-16T22:51:42.429Z,1.92
2019-03-16T22:54:10.395Z,2.20
2019-03-16T22:56:38.370Z,2.25
2019-03-16T22:59:06.413Z,2.10
2019-03-16T23:01:34.716Z,2.80
2019-03-16T23:04:07.039Z,2.10
2019-03-16T23:06:32.531Z,2.67
2019-03-16T23:09:02.535Z,2.00
2019-03-16T23:11:30.362Z,1.87
2019-03-16T23:13:58.349Z,1.80
2019-03-16T23:16:26.314Z,2.27
2019-03-16T23:18:54.276Z,2.02
2019-03-16T23:21:22.280Z,1.87
2019-03-16T23:23:50.339Z,2.00
2019-03-16T23:26:18.301Z,2.25
2019-03-16T23:28:46.296Z,2.22
2019-03-16T23:31:14.294Z,2.12
2019-03-16T23:33:42.300Z,2.00
2019-03-16T23:36:10.332Z,2.20
2019-03-16T23:38:38.292Z,2.08
2019-03-16T23:41:06.265Z,2.50
2019-03-16T23:43:34.235Z,2.00
2019-03-16T23:46:02.199Z,1.92
2019-03-16T23:48:30.169Z,2.10
2019-03-16T23:50:58.141Z,1.92
2019-03-16T23:53:26.108Z,1.60
2019-03-16T23:55:54.104Z,1.50
2019-03-16T23:58:22.361Z,2.12
